createdAt,value
2022-12-04T00:09:05.570Z,100233.42
2022-12-04T00:19:11.225Z,100232.58
2022-12-04T00:29:16.904Z,100251.17
2022-12-04T00:39:22.606Z,100256.36
2022-12-04T00:49:28.481Z,100254.14
2022-12-04T00:59:34.119Z,100246.57
2022-12-04T01:09:39.717Z,100239.70
2022-12-04T01:19:45.457Z,100223.73
2022-12-04T01:29:51.112Z,100202.75
2022-12-04T01:39:57.222Z,100205.17
2022-12-04T01:50:03.004Z,100184.20
2022-12-04T02:00:14.701Z,100180.56
2022-12-04T02:10:24.605Z,100184.84
2022-12-04T02:20:37.787Z,100190.14
2022-12-04T02:30:45.365Z,100207.02
2022-12-04T02:40:57.848Z,100222.50
2022-12-04T02:51:06.724Z,100197.73
2022-12-04T03:01:23.908Z,100200.98
2022-12-04T03:11:32.354Z,100191.70
2022-12-04T03:21:40.906Z,100186.69
2022-12-04T03:31:50.235Z,100201.83
2022-12-04T03:42:02.735Z,100203.38
2022-12-04T03:52:15.372Z,100201.65
2022-12-04T04:02:25.406Z,100203.53
2022-12-04T04:12:35.625Z,100202.17
2022-12-04T04:23:00.090Z,100198.56
2022-12-04T04:33:12.411Z,100212.17
2022-12-04T04:43:24.101Z,100197.05
2022-12-04T04:53:36.239Z,100194.48
2022-12-04T05:03:42.680Z,100201.23
2022-12-04T05:13:48.232Z,100206.94
2022-12-04T05:23:54.777Z,100205.20
2022-12-04T05:34:00.749Z,100194.19
2022-12-04T05:44:06.527Z,100186.46
2022-12-04T05:54:12.101Z,100173.94
2022-12-04T06:04:17.752Z,100190.48
2022-12-04T06:14:23.503Z,100197.36
2022-12-04T06:24:29.136Z,100217.33
2022-12-04T06:34:35.675Z,100199.96
2022-12-04T06:44:41.248Z,100201.73
2022-12-04T06:54:47.329Z,100216.85
2022-12-04T07:04:57.209Z,100220.63
2022-12-04T07:15:02.724Z,100217.34
2022-12-04T07:25:08.937Z,100210.58
2022-12-04T07:35:14.590Z,100212.95
2022-12-04T07:45:20.865Z,100217.56
2022-12-04T07:55:26.430Z,100219.64
2022-12-04T08:05:33.010Z,100233.73
2022-12-04T08:15:38.611Z,100232.11
2022-12-04T08:25:44.408Z,100235.34
2022-12-04T08:35:50.128Z,100240.69
2022-12-04T08:46:00.228Z,100241.84
2022-12-04T08:56:06.723Z,100247.81
2022-12-04T09:06:14.289Z,100253.94
2022-12-04T09:16:22.620Z,100251.45
2022-12-04T09:26:30.273Z,100239.71
2022-12-04T09:36:35.988Z,100246.48
2022-12-04T09:46:51.024Z,100236.64
2022-12-04T09:57:02.411Z,100224.57
2022-12-04T10:07:17.106Z,100215.91
2022-12-04T10:17:45.161Z,100199.87
2022-12-04T10:27:57.159Z,100195.68
2022-12-04T10:38:12.751Z,100199.46
2022-12-04T10:48:27.249Z,100190.53
2022-12-04T10:58:32.792Z,100197.73
2022-12-04T11:08:41.665Z,100201.05
2022-12-04T11:18:51.542Z,100200.50
2022-12-04T11:29:01.363Z,100198.95
2022-12-04T11:39:15.658Z,100191.63
2022-12-04T11:49:24.922Z,100195.32
2022-12-04T11:59:45.860Z,100186.48
2022-12-04T12:10:00.646Z,100186.39
2022-12-04T12:20:18.590Z,100195.89
2022-12-04T12:30:27.778Z,100189.83
2022-12-04T12:40:38.403Z,100188.86
2022-12-04T12:51:09.005Z,100181.81
2022-12-04T13:01:21.073Z,100183.73
2022-12-04T13:11:29.849Z,100175.63
2022-12-04T13:21:42.276Z,100172.42
2022-12-04T13:32:01.196Z,100159.02
2022-12-04T13:42:21.509Z,100157.13
2022-12-04T13:52:40.838Z,100157.67
2022-12-04T14:02:54.002Z,100167.35
2022-12-04T14:13:04.447Z,100175.85
2022-12-04T14:23:26.638Z,100176.25
2022-12-04T14:33:33.998Z,100170.81
2022-12-04T14:43:45.565Z,100172.88
2022-12-04T14:54:00.607Z,100189.95
2022-12-04T15:04:19.618Z,100187.11
2022-12-04T15:14:25.936Z,100181.84
2022-12-04T15:24:31.825Z,100172.92
2022-12-04T15:34:42.607Z,100184.64
2022-12-04T15:45:00.887Z,100176.39
2022-12-04T15:55:09.916Z,100185.00
2022-12-04T16:05:27.876Z,100181.75
2022-12-04T16:15:40.512Z,100166.50
2022-12-04T16:25:49.973Z,100162.89
2022-12-04T16:35:59.199Z,100182.16
2022-12-04T16:46:04.914Z,100178.92
2022-12-04T16:56:10.989Z,100163.45
2022-12-04T17:06:17.425Z,100174.81
2022-12-04T17:16:24.856Z,100162.77
2022-12-04T17:26:30.701Z,100154.67
2022-12-04T17:36:36.335Z,100165.17
2022-12-04T17:46:42.064Z,100178.41
2022-12-04T17:56:51.226Z,100189.94
2022-12-04T18:06:59.216Z,100179.31
2022-12-04T18:17:05.145Z,100174.48
2022-12-04T18:27:11.289Z,100168.27
2022-12-04T18:37:17.062Z,100151.77
2022-12-04T18:47:22.677Z,100152.48
2022-12-04T18:57:28.277Z,100160.90
2022-12-04T19:07:34.175Z,100165.73
2022-12-04T19:17:39.841Z,100167.96
2022-12-04T19:27:45.525Z,100182.75
2022-12-04T19:37:53.950Z,100182.74
2022-12-04T19:47:59.667Z,100192.56
2022-12-04T19:58:05.338Z,100193.09
2022-12-04T20:18:15.529Z,100200.66
2022-12-04T20:28:21.272Z,100204.79
2022-12-04T20:38:26.894Z,100198.96
2022-12-04T20:48:32.577Z,100190.02
2022-12-04T20:58:38.459Z,100181.42
2022-12-04T21:08:57.125Z,100176.27
2022-12-04T21:19:03.595Z,100178.73
2022-12-04T21:29:09.581Z,100175.33
2022-12-04T21:39:15.936Z,100169.46
2022-12-04T21:49:22.475Z,100161.76
2022-12-04T21:59:28.555Z,100165.73
2022-12-04T22:09:34.728Z,100168.04
2022-12-04T22:19:40.804Z,100169.44
2022-12-04T22:29:51.138Z,100174.95
2022-12-04T22:39:57.589Z,100157.27
2022-12-04T22:50:04.125Z,100143.19
2022-12-04T23:00:12.531Z,100135.48
2022-12-04T23:10:18.939Z,100131.89
2022-12-04T23:20:24.727Z,100138.25
2022-12-04T23:30:32.635Z,100143.06
2022-12-04T23:40:40.742Z,100132.61
2022-12-04T23:50:46.849Z,100131.27
